Time;durP1;ratioP1;P1;durP2;ratioP2;P2;SDS_P1;SDS_P2;PMS_P1;PMS_P2;Temp;Humidity;BMP_temperature;BMP_pressure;BME280_temperature;BME280_humidity;BME280_pressure;Samples;Min_cycle;Max_cycle;Signal;HPM_P1;HPM_P2
2022/11/13 00:01:17;;;;;;;14.37;9.40;;;5.00;99.90;;;;;;4989586;28;20595;-88
2022/11/13 00:03:43;;;;;;;16.57;9.87;;;4.90;99.90;;;;;;4974363;28;20168;-89
2022/11/13 00:06:12;;;;;;;13.40;9.87;;;4.90;99.90;;;;;;4989234;28;20219;-88
2022/11/13 00:08:40;;;;;;;13.57;9.17;;;4.90;99.90;;;;;;4989285;28;20307;-88
2022/11/13 00:11:13;;;;;;;11.67;9.07;;;4.90;99.90;;;;;;4988968;28;20183;-89
2022/11/13 00:13:39;;;;;;;12.83;8.93;;;4.80;99.90;;;;;;4988921;28;20180;-89
2022/11/13 00:16:08;;;;;;;11.97;8.67;;;4.80;99.90;;;;;;4988943;28;20223;-89
2022/11/13 00:18:35;;;;;;;13.40;9.13;;;4.70;99.90;;;;;;4989705;28;20714;-88
2022/11/13 00:21:07;;;;;;;14.80;9.60;;;4.70;99.90;;;;;;4988683;28;20187;-89
2022/11/13 00:23:34;;;;;;;13.13;9.50;;;4.60;99.90;;;;;;4990920;28;20192;-89
2022/11/13 00:26:08;;;;;;;14.37;9.30;;;4.60;99.90;;;;;;5008384;28;20207;-88
2022/11/13 00:28:34;;;;;;;14.73;9.73;;;4.60;99.90;;;;;;5008420;28;20686;-89
2022/11/13 00:31:01;;;;;;;14.60;9.20;;;4.60;99.90;;;;;;5008058;28;20378;-88
2022/11/13 00:33:28;;;;;;;13.53;9.27;;;4.60;99.90;;;;;;5008334;28;20168;-89
2022/11/13 00:35:53;;;;;;;13.27;9.23;;;4.50;99.90;;;;;;5008542;28;20182;-88
2022/11/13 00:38:19;;;;;;;12.70;9.27;;;4.50;99.90;;;;;;4992821;28;20207;-88
2022/11/13 00:40:45;;;;;;;12.67;9.17;;;4.50;99.90;;;;;;5008082;28;20590;-89
2022/11/13 00:43:11;;;;;;;12.83;8.80;;;4.50;99.90;;;;;;4989469;28;20271;-88
2022/11/13 00:45:37;;;;;;;14.13;8.90;;;4.50;99.90;;;;;;4973578;28;20224;-88
2022/11/13 00:48:03;;;;;;;11.70;8.43;;;4.50;99.90;;;;;;4972234;28;20204;-89
2022/11/13 00:50:28;;;;;;;13.43;9.37;;;4.60;99.90;;;;;;4972446;28;20179;-89
2022/11/13 00:52:54;;;;;;;17.07;9.20;;;4.60;99.90;;;;;;4972060;28;20188;-89
2022/11/13 00:55:20;;;;;;;13.00;9.07;;;4.50;99.90;;;;;;4972823;28;20176;-88
2022/11/13 00:57:46;;;;;;;11.87;8.40;;;4.60;99.90;;;;;;4972426;28;20196;-88
2022/11/13 01:00:12;;;;;;;14.33;8.90;;;4.60;99.90;;;;;;4973646;28;20583;-89
2022/11/13 01:02:37;;;;;;;11.17;8.37;;;4.70;99.90;;;;;;4972586;28;20200;-89
2022/11/13 01:05:03;;;;;;;14.87;8.67;;;4.70;99.90;;;;;;4973382;28;20172;-89
2022/11/13 01:07:29;;;;;;;13.60;8.93;;;4.60;99.90;;;;;;4972008;28;20271;-88
2022/11/13 01:09:55;;;;;;;10.77;7.63;;;4.60;99.90;;;;;;4972367;28;20168;-89
2022/11/13 01:12:21;;;;;;;15.13;8.30;;;4.60;99.90;;;;;;4972396;28;20215;-89
2022/11/13 01:14:47;;;;;;;15.73;10.13;;;4.60;99.90;;;;;;4972387;28;20180;-88
2022/11/13 01:17:12;;;;;;;17.40;9.20;;;4.60;99.90;;;;;;4973260;28;20671;-89
2022/11/13 01:19:38;;;;;;;13.00;7.90;;;4.60;99.90;;;;;;4972184;28;20173;-89
2022/11/13 01:22:04;;;;;;;14.73;8.53;;;4.60;99.90;;;;;;4973412;28;20197;-89
2022/11/13 01:27:03;;;;;;;12.13;8.83;;;4.60;99.90;;;;;;4993116;28;20235;-94
2022/11/13 01:29:29;;;;;;;12.47;8.40;;;4.60;99.90;;;;;;4994109;28;20180;-92
2022/11/13 01:31:54;;;;;;;10.40;8.13;;;4.70;99.90;;;;;;4995602;28;20179;-92
2022/11/13 01:34:20;;;;;;;13.10;8.70;;;4.50;99.90;;;;;;4994352;28;20226;-92
2022/11/13 01:36:47;;;;;;;12.70;8.47;;;4.50;99.90;;;;;;4994287;28;20533;-91
2022/11/13 01:39:13;;;;;;;14.93;9.70;;;4.60;99.90;;;;;;4994392;28;20263;-92
2022/11/13 01:41:40;;;;;;;13.93;9.73;;;4.60;99.90;;;;;;4995003;28;20618;-91
2022/11/13 01:44:13;;;;;;;13.80;9.93;;;4.70;99.90;;;;;;4997581;28;20211;-89
2022/11/13 01:46:54;;;;;;;13.27;9.70;;;4.80;99.90;;;;;;4997537;28;20172;-89
2022/11/13 01:49:34;;;;;;;15.40;10.43;;;4.80;99.90;;;;;;4997809;28;20187;-89
2022/11/13 01:52:09;;;;;;;13.53;9.50;;;4.90;99.90;;;;;;4997614;28;20275;-89
2022/11/13 01:54:42;;;;;;;14.07;9.60;;;4.90;99.90;;;;;;4997488;28;20176;-89
2022/11/13 01:57:09;;;;;;;15.13;9.23;;;4.90;99.90;;;;;;4997269;28;20266;-89
2022/11/13 01:59:40;;;;;;;18.53;10.23;;;4.90;99.90;;;;;;4997592;28;20215;-89
2022/11/13 02:02:07;;;;;;;15.97;10.83;;;4.90;99.90;;;;;;4998384;28;20179;-89
2022/11/13 02:04:33;;;;;;;16.07;10.67;;;4.90;99.90;;;;;;4997208;28;20630;-89
2022/11/13 02:07:08;;;;;;;16.10;10.67;;;5.00;99.90;;;;;;4996988;28;20184;-89
2022/11/13 02:09:41;;;;;;;17.97;11.47;;;4.90;99.90;;;;;;4997255;28;20214;-91
2022/11/13 02:12:09;;;;;;;14.57;9.93;;;4.90;99.90;;;;;;4997054;28;20176;-89
2022/11/13 02:14:39;;;;;;;17.30;10.63;;;4.90;99.90;;;;;;4998304;28;20172;-89
2022/11/13 02:17:13;;;;;;;17.30;10.20;;;4.90;99.90;;;;;;4996918;28;20210;-89
2022/11/13 02:19:44;;;;;;;14.17;10.47;;;4.90;99.90;;;;;;5013334;28;20214;-90
2022/11/13 02:22:39;;;;;;;14.47;10.37;;;4.80;99.90;;;;;;4996812;28;20180;-88
2022/11/13 02:25:05;;;;;;;18.10;10.23;;;4.80;99.90;;;;;;5012597;28;20334;-89
2022/11/13 02:27:40;;;;;;;15.53;10.17;;;4.80;99.90;;;;;;4996722;28;20299;-90
2022/11/13 02:30:22;;;;;;;16.10;11.37;;;4.80;99.90;;;;;;4997039;28;20172;-89
2022/11/13 02:32:51;;;;;;;20.57;11.30;;;4.90;99.90;;;;;;4996819;28;20179;-89
2022/11/13 02:35:21;;;;;;;16.63;11.93;;;4.80;99.90;;;;;;4998145;28;20335;-90
2022/11/13 02:37:47;;;;;;;16.57;11.67;;;4.80;99.90;;;;;;4997899;28;20522;-91
2022/11/13 02:40:13;;;;;;;17.70;10.97;;;4.80;99.90;;;;;;4997697;28;20168;-93
2022/11/13 02:42:39;;;;;;;18.30;11.87;;;4.80;99.90;;;;;;4997843;28;20313;-91
2022/11/13 02:45:06;;;;;;;17.17;11.50;;;4.70;99.90;;;;;;4996325;28;20212;-93
2022/11/13 02:47:35;;;;;;;19.30;12.10;;;4.70;99.90;;;;;;5012756;28;20270;-93
2022/11/13 02:50:02;;;;;;;18.70;11.40;;;4.60;99.90;;;;;;4996394;28;20256;-92
2022/11/13 02:52:30;;;;;;;17.80;11.43;;;4.70;99.90;;;;;;4995703;28;20216;-94
2022/11/13 02:54:56;;;;;;;16.00;11.47;;;4.60;99.90;;;;;;4995788;28;20214;-93
2022/11/13 02:57:24;;;;;;;17.87;11.97;;;4.50;99.90;;;;;;4996472;28;20521;-93
2022/11/13 02:59:50;;;;;;;16.97;11.47;;;4.50;99.90;;;;;;4997412;28;20172;-93
2022/11/13 03:02:16;;;;;;;14.77;10.67;;;4.50;99.90;;;;;;5012467;28;20191;-90
2022/11/13 03:04:43;;;;;;;17.73;11.67;;;4.50;99.90;;;;;;4996186;28;20275;-90
2022/11/13 03:07:09;;;;;;;16.10;11.57;;;4.50;99.90;;;;;;4995837;28;20235;-93
2022/11/13 03:09:35;;;;;;;15.63;11.27;;;4.40;99.90;;;;;;4996035;28;20618;-93
2022/11/13 03:12:01;;;;;;;16.33;11.07;;;4.40;99.90;;;;;;4995700;28;20176;-89
2022/11/13 03:14:26;;;;;;;16.13;11.57;;;4.40;99.90;;;;;;4995644;28;20195;-89
2022/11/13 03:16:57;;;;;;;18.13;10.40;;;4.40;99.90;;;;;;5012295;28;20184;-92
2022/11/13 03:19:23;;;;;;;28.27;10.60;;;4.40;99.90;;;;;;5012186;28;20267;-92
2022/11/13 03:21:49;;;;;;;25.23;11.07;;;4.30;99.90;;;;;;4996998;28;20176;-93
2022/11/13 03:24:15;;;;;;;19.60;10.97;;;4.30;99.90;;;;;;5012164;28;20187;-94
2022/11/13 03:26:41;;;;;;;28.63;11.20;;;4.30;99.90;;;;;;4996395;28;20235;-92
2022/11/13 03:29:06;;;;;;;18.83;10.53;;;4.30;99.90;;;;;;4995263;28;20354;-91
2022/11/13 03:31:32;;;;;;;14.77;9.90;;;4.20;99.90;;;;;;4996587;28;20251;-92
2022/11/13 03:33:58;;;;;;;23.87;10.60;;;4.20;99.90;;;;;;4995679;28;20665;-94
2022/11/13 03:36:23;;;;;;;13.40;10.57;;;4.20;99.90;;;;;;4997055;28;20211;-94
2022/11/13 03:38:50;;;;;;;19.63;11.07;;;4.20;99.90;;;;;;4995681;28;20231;-91
2022/11/13 03:41:15;;;;;;;14.70;10.67;;;4.10;99.90;;;;;;4995484;28;20179;-91
2022/11/13 03:43:41;;;;;;;13.73;9.93;;;4.20;99.90;;;;;;4995523;28;20600;-90
2022/11/13 03:46:08;;;;;;;14.27;9.93;;;4.10;99.90;;;;;;4995462;28;20220;-90
2022/11/13 03:48:49;;;;;;;12.83;9.13;;;4.10;99.90;;;;;;4995580;28;20218;-89
2022/11/13 03:51:14;;;;;;;12.00;9.27;;;4.10;99.90;;;;;;4996287;28;20176;-90
2022/11/13 03:53:41;;;;;;;12.87;9.63;;;4.10;99.90;;;;;;5011726;28;20172;-90
2022/11/13 03:56:06;;;;;;;13.80;9.00;;;4.00;99.90;;;;;;5011395;28;20646;-89
2022/11/13 03:58:34;;;;;;;12.67;8.90;;;4.00;99.90;;;;;;4995687;28;20187;-89
2022/11/13 04:01:00;;;;;;;13.30;9.00;;;3.90;99.90;;;;;;4995430;28;20266;-90
2022/11/13 04:03:26;;;;;;;12.70;9.60;;;3.80;99.90;;;;;;4995202;28;20279;-89
2022/11/13 04:05:51;;;;;;;13.07;9.03;;;3.70;99.90;;;;;;4994993;28;20186;-89
2022/11/13 04:08:18;;;;;;;14.30;8.67;;;3.70;99.90;;;;;;4994623;28;20656;-90
2022/11/13 04:10:44;;;;;;;12.20;8.67;;;3.70;99.90;;;;;;4995941;28;20210;-91
2022/11/13 04:13:10;;;;;;;13.10;9.03;;;3.70;99.90;;;;;;4996100;28;20187;-89
2022/11/13 04:15:36;;;;;;;12.10;8.80;;;3.70;99.90;;;;;;5011628;28;20180;-88
2022/11/13 04:18:09;;;;;;;10.83;8.40;;;3.70;99.90;;;;;;4994860;28;20522;-90
2022/11/13 04:20:34;;;;;;;11.00;8.43;;;3.60;99.90;;;;;;5011378;28;20206;-90
2022/11/13 04:23:00;;;;;;;11.70;8.70;;;3.70;99.90;;;;;;4994966;28;20616;-89
2022/11/13 04:25:26;;;;;;;11.87;8.80;;;3.70;99.90;;;;;;4994650;28;20232;-88
2022/11/13 04:27:52;;;;;;;19.43;10.90;;;3.70;99.90;;;;;;4995018;28;20203;-89
2022/11/13 04:30:18;;;;;;;12.77;9.60;;;3.70;99.90;;;;;;5011380;28;20204;-89
2022/11/13 04:32:44;;;;;;;11.40;9.07;;;3.80;99.90;;;;;;4995112;28;20190;-89
2022/11/13 04:35:11;;;;;;;11.17;8.50;;;3.80;99.90;;;;;;4995148;28;20180;-90
2022/11/13 04:37:37;;;;;;;11.80;8.57;;;3.70;99.90;;;;;;5011250;28;20219;-89
2022/11/13 04:40:04;;;;;;;14.13;9.20;;;3.70;99.90;;;;;;5011445;28;20199;-89
2022/11/13 04:42:48;;;;;;;10.73;8.27;;;3.70;99.90;;;;;;4994490;28;20211;-90
2022/11/13 04:45:15;;;;;;;14.43;8.73;;;3.80;99.90;;;;;;5011796;28;20176;-90
2022/11/13 04:47:48;;;;;;;12.67;8.23;;;3.70;99.90;;;;;;4996522;28;20513;-89
2022/11/13 04:50:15;;;;;;;11.60;7.90;;;3.60;99.90;;;;;;4995730;28;20222;-90
2022/11/13 04:52:41;;;;;;;11.63;8.37;;;3.60;99.90;;;;;;4995908;28;20202;-90
2022/11/13 04:55:08;;;;;;;11.17;8.40;;;3.50;99.90;;;;;;4995209;28;20238;-90
2022/11/13 04:57:36;;;;;;;11.13;8.13;;;3.50;99.90;;;;;;4995827;28;20176;-90
2022/11/13 05:00:04;;;;;;;11.23;8.20;;;3.50;99.90;;;;;;4995694;28;20179;-89
2022/11/13 05:02:29;;;;;;;11.33;8.37;;;3.50;99.90;;;;;;4996246;28;20195;-90
2022/11/13 05:04:55;;;;;;;12.47;8.20;;;3.50;99.90;;;;;;4995062;28;20179;-88
2022/11/13 05:07:26;;;;;;;11.00;7.93;;;3.50;99.90;;;;;;4994647;28;20681;-89
2022/11/13 05:09:52;;;;;;;13.27;8.87;;;3.60;99.90;;;;;;4995740;28;20622;-89
2022/11/13 05:12:18;;;;;;;11.17;8.10;;;3.50;99.90;;;;;;4995620;28;20270;-93
2022/11/13 05:14:44;;;;;;;9.30;7.73;;;3.40;99.90;;;;;;4995949;28;20179;-90
2022/11/13 05:17:11;;;;;;;10.43;8.60;;;3.30;99.90;;;;;;4998102;28;20507;-90
2022/11/13 05:19:37;;;;;;;11.93;8.47;;;3.30;99.90;;;;;;4999728;28;20261;-89
2022/11/13 05:22:04;;;;;;;11.00;8.50;;;3.40;99.90;;;;;;4999334;28;20183;-92
2022/11/13 05:24:30;;;;;;;12.40;9.30;;;3.30;99.90;;;;;;4999227;28;20178;-90
2022/11/13 05:26:56;;;;;;;10.53;7.87;;;3.20;99.90;;;;;;4997456;28;20267;-88
2022/11/13 05:29:22;;;;;;;15.43;10.17;;;3.20;99.90;;;;;;4998735;28;20218;-88
2022/11/13 05:31:48;;;;;;;13.70;9.40;;;3.30;99.90;;;;;;4998491;28;20198;-92
2022/11/13 05:34:13;;;;;;;14.87;10.10;;;3.40;99.90;;;;;;4998511;28;20176;-89
2022/11/13 05:36:39;;;;;;;15.30;11.23;;;3.60;99.90;;;;;;4998162;28;20515;-90
2022/11/13 05:39:07;;;;;;;13.83;10.73;;;3.60;99.90;;;;;;4998096;28;20184;-89
2022/11/13 05:41:33;;;;;;;16.77;11.10;;;3.70;99.90;;;;;;4998141;28;20172;-94
2022/11/13 05:43:59;;;;;;;18.67;11.30;;;3.80;99.90;;;;;;4999161;28;20524;-91
2022/11/13 05:46:27;;;;;;;15.37;11.53;;;3.80;99.90;;;;;;5000611;28;20176;-93
2022/11/13 05:48:57;;;;;;;15.10;11.00;;;3.80;99.90;;;;;;5000672;28;20212;-89
2022/11/13 05:51:26;;;;;;;18.93;11.20;;;3.90;99.90;;;;;;5000263;28;20172;-94
2022/11/13 05:53:52;;;;;;;15.60;10.80;;;3.90;99.90;;;;;;5000165;28;20180;-93
2022/11/13 05:56:24;;;;;;;19.40;10.90;;;3.80;99.90;;;;;;4998942;28;20275;-90
2022/11/13 05:58:52;;;;;;;18.20;11.40;;;3.80;99.90;;;;;;4998239;28;20172;-88
2022/11/13 06:01:23;;;;;;;17.33;11.07;;;3.80;99.90;;;;;;4998487;28;20176;-94
2022/11/13 06:03:50;;;;;;;17.63;11.60;;;3.80;99.90;;;;;;4999079;28;20606;-88
2022/11/13 06:06:20;;;;;;;17.63;11.87;;;3.80;99.90;;;;;;4998642;28;20247;-90
2022/11/13 06:08:48;;;;;;;18.87;11.67;;;3.80;99.90;;;;;;4997594;28;20204;-91
2022/11/13 06:11:17;;;;;;;24.87;11.20;;;3.80;99.90;;;;;;4997534;28;20168;-91
2022/11/13 06:13:43;;;;;;;74.53;11.60;;;3.80;99.90;;;;;;4997801;28;20238;-91
2022/11/13 06:16:18;;;;;;;34.07;11.53;;;3.80;99.90;;;;;;4998141;28;20657;-89
2022/11/13 06:18:58;;;;;;;74.13;11.87;;;3.80;99.90;;;;;;4997695;28;20682;-89
2022/11/13 06:21:28;;;;;;;18.00;11.03;;;3.70;99.90;;;;;;4998841;28;20182;-89
2022/11/13 06:23:54;;;;;;;108.27;11.80;;;3.60;99.90;;;;;;4998924;28;20674;-90
2022/11/13 06:26:25;;;;;;;74.60;11.80;;;3.60;99.90;;;;;;4997979;28;20232;-88
2022/11/13 06:28:52;;;;;;;107.67;11.93;;;3.50;99.90;;;;;;4998672;28;20211;-88
2022/11/13 06:31:23;;;;;;;93.00;11.73;;;3.50;99.90;;;;;;4998687;28;20628;-92
2022/11/13 06:33:49;;;;;;;56.80;11.80;;;3.50;99.90;;;;;;4999073;28;20327;-90
2022/11/13 06:36:25;;;;;;;71.07;12.30;;;3.50;99.90;;;;;;5000178;28;20615;-89
2022/11/13 06:38:51;;;;;;;87.30;11.83;;;3.50;99.90;;;;;;5001061;28;20183;-87
2022/11/13 06:41:20;;;;;;;60.87;11.23;;;3.50;99.90;;;;;;5000467;28;20533;-88
2022/11/13 06:43:46;;;;;;;69.13;12.40;;;3.50;99.90;;;;;;5000490;28;20614;-89
2022/11/13 06:46:15;;;;;;;49.20;12.73;;;3.50;99.90;;;;;;4999274;28;20183;-87
2022/11/13 06:48:42;;;;;;;17.70;11.60;;;3.50;99.90;;;;;;4999942;28;20207;-88
2022/11/13 06:51:14;;;;;;;29.07;11.60;;;3.50;99.90;;;;;;4999819;28;20172;-88
2022/11/13 06:53:40;;;;;;;15.27;11.47;;;3.50;99.90;;;;;;4998985;28;20184;-87
2022/11/13 06:56:06;;;;;;;28.30;11.80;;;3.50;99.90;;;;;;4996979;28;20263;-89
2022/11/13 06:58:42;;;;;;;49.27;11.73;;;3.40;99.90;;;;;;4997089;28;20176;-90
2022/11/13 07:01:15;;;;;;;31.73;12.83;;;3.50;99.90;;;;;;4997337;28;20175;-89
2022/11/13 07:03:41;;;;;;;54.43;12.10;;;3.40;99.90;;;;;;4997375;28;20199;-89
2022/11/13 07:06:12;;;;;;;35.53;12.73;;;3.40;99.90;;;;;;4996386;28;20180;-90
2022/11/13 07:08:40;;;;;;;54.47;13.43;;;3.50;99.90;;;;;;4997742;28;20223;-88
2022/11/13 07:11:08;;;;;;;33.10;12.20;;;3.50;99.90;;;;;;5001341;28;20225;-91
2022/11/13 07:13:36;;;;;;;37.33;12.17;;;3.50;99.90;;;;;;5002607;28;20195;-89
2022/11/13 07:16:04;;;;;;;29.53;12.20;;;3.50;99.90;;;;;;5002048;28;20184;-93
2022/11/13 07:18:32;;;;;;;38.70;13.03;;;3.60;99.90;;;;;;5001354;28;20183;-88
2022/11/13 07:21:03;;;;;;;43.47;12.87;;;3.60;99.90;;;;;;4999480;28;20187;-95
2022/11/13 07:23:29;;;;;;;67.67;12.57;;;3.60;99.90;;;;;;4997039;28;20188;-92
2022/11/13 07:25:55;;;;;;;33.23;11.53;;;3.70;99.90;;;;;;5001533;28;20246;-91
2022/11/13 07:28:23;;;;;;;38.40;11.57;;;3.70;99.90;;;;;;4998653;28;20216;-93
2022/11/13 07:30:49;;;;;;;33.17;12.40;;;3.70;99.90;;;;;;4999726;28;20172;-89
2022/11/13 07:33:15;;;;;;;25.40;12.67;;;3.70;99.90;;;;;;5004688;28;20180;-90
2022/11/13 07:35:41;;;;;;;24.73;12.73;;;3.70;99.90;;;;;;5003367;28;20187;-88
2022/11/13 07:38:08;;;;;;;31.53;12.93;;;3.80;99.90;;;;;;5002146;28;20187;-90
2022/11/13 07:40:33;;;;;;;29.10;12.20;;;3.80;99.90;;;;;;5000184;28;20595;-91
2022/11/13 07:43:00;;;;;;;22.33;11.83;;;3.90;99.90;;;;;;5000174;28;20188;-92
2022/11/13 07:45:27;;;;;;;25.87;12.23;;;3.90;99.90;;;;;;4999147;28;20182;-94
2022/11/13 07:48:00;;;;;;;23.83;12.90;;;4.00;99.90;;;;;;4998574;28;20208;-91
2022/11/13 07:50:46;;;;;;;29.83;12.63;;;4.00;99.90;;;;;;5001504;28;20289;-92
2022/11/13 07:53:12;;;;;;;27.60;12.63;;;4.10;99.90;;;;;;4998295;28;20188;-92
2022/11/13 07:55:37;;;;;;;17.80;11.30;;;4.20;99.90;;;;;;4997330;28;20191;-92
2022/11/13 07:58:04;;;;;;;21.67;12.07;;;4.20;99.90;;;;;;4998681;28;20187;-89
2022/11/13 08:00:33;;;;;;;23.93;11.90;;;4.20;99.90;;;;;;4996743;28;20187;-92
2022/11/13 08:03:05;;;;;;;21.40;12.27;;;4.30;99.90;;;;;;4996589;28;20174;-91
2022/11/13 08:05:31;;;;;;;26.30;12.07;;;4.30;99.90;;;;;;4999096;28;20258;-90
2022/11/13 08:07:57;;;;;;;28.77;11.60;;;4.40;99.90;;;;;;4995362;28;20227;-92
2022/11/13 08:10:31;;;;;;;28.87;11.70;;;4.30;99.90;;;;;;4994924;28;20180;-88
2022/11/13 08:13:02;;;;;;;29.40;11.57;;;4.40;99.90;;;;;;5013418;28;20610;-96
2022/11/13 08:15:29;;;;;;;24.93;11.03;;;4.40;99.90;;;;;;4999359;28;20191;-91
2022/11/13 08:17:59;;;;;;;32.33;11.53;;;4.50;99.90;;;;;;5000864;28;20203;-93
2022/11/13 08:20:27;;;;;;;24.67;11.33;;;4.50;99.90;;;;;;5001399;28;20176;-93
2022/11/13 08:22:57;;;;;;;45.43;12.30;;;4.60;99.90;;;;;;4995816;28;20188;-94
2022/11/13 08:25:23;;;;;;;35.80;12.47;;;4.70;99.90;;;;;;4996492;28;20288;-96
2022/11/13 08:27:51;;;;;;;32.77;11.33;;;4.70;99.90;;;;;;5012865;28;20306;-94
2022/11/13 08:30:19;;;;;;;26.60;12.30;;;4.80;99.90;;;;;;4995398;28;20183;-91
2022/11/13 08:32:47;;;;;;;35.47;11.80;;;4.80;99.90;;;;;;4998870;28;20171;-90
2022/11/13 08:35:12;;;;;;;33.43;11.73;;;4.80;99.90;;;;;;4997737;28;20180;-92
2022/11/13 08:37:38;;;;;;;33.20;12.67;;;4.90;99.90;;;;;;5013688;28;20187;-91
2022/11/13 08:40:05;;;;;;;25.83;13.10;;;4.90;99.90;;;;;;4995205;28;20195;-95
2022/11/13 08:42:30;;;;;;;20.90;11.70;;;5.00;99.90;;;;;;4997954;28;20199;-93
2022/11/13 08:44:56;;;;;;;24.53;11.23;;;5.00;99.90;;;;;;4996855;28;20188;-92
2022/11/13 08:47:22;;;;;;;25.23;12.53;;;5.10;99.90;;;;;;4995688;28;20223;-95
2022/11/13 08:49:48;;;;;;;27.07;11.57;;;5.10;99.90;;;;;;4996235;28;20188;-93
2022/11/13 08:52:14;;;;;;;25.70;12.27;;;5.20;99.90;;;;;;4999119;28;20235;-94
2022/11/13 08:54:40;;;;;;;21.80;12.03;;;5.30;99.90;;;;;;4998962;28;20520;-94
2022/11/13 08:57:06;;;;;;;26.13;12.63;;;5.30;99.90;;;;;;4999854;28;20176;-95
2022/11/13 08:59:35;;;;;;;24.83;11.37;;;5.40;99.90;;;;;;4998675;28;20310;-93
2022/11/13 09:02:01;;;;;;;26.87;12.27;;;5.40;99.90;;;;;;4999149;28;20229;-94
2022/11/13 09:04:27;;;;;;;24.80;12.80;;;5.40;99.90;;;;;;4998608;28;20278;-96
2022/11/13 09:06:53;;;;;;;27.13;13.60;;;5.50;99.90;;;;;;4998590;28;20202;-94
2022/11/13 09:09:22;;;;;;;28.47;13.73;;;5.60;99.90;;;;;;4998059;28;20215;-91
2022/11/13 09:11:48;;;;;;;31.17;13.07;;;5.50;99.90;;;;;;4998520;28;20664;-89
2022/11/13 09:14:14;;;;;;;25.27;13.93;;;5.60;99.90;;;;;;4998260;28;20234;-94
2022/11/13 09:16:40;;;;;;;25.63;13.60;;;5.60;99.90;;;;;;4999273;28;20211;-93
2022/11/13 09:19:07;;;;;;;27.80;14.10;;;5.70;99.90;;;;;;4998506;28;20325;-94
2022/11/13 09:21:33;;;;;;;29.57;14.47;;;5.70;99.90;;;;;;4998532;28;20215;-91
2022/11/13 09:23:58;;;;;;;30.73;15.73;;;5.70;99.90;;;;;;4997872;28;20224;-93
2022/11/13 09:26:24;;;;;;;34.37;14.93;;;5.80;99.90;;;;;;4997487;28;20243;-91
2022/11/13 09:28:50;;;;;;;30.53;14.77;;;5.80;99.90;;;;;;4998199;28;20212;-93
2022/11/13 09:31:16;;;;;;;32.70;14.90;;;5.90;99.90;;;;;;4997851;28;20556;-93
2022/11/13 09:33:41;;;;;;;32.87;15.97;;;6.00;99.90;;;;;;4997682;28;20194;-89
2022/11/13 09:36:13;;;;;;;28.00;14.60;;;6.10;99.90;;;;;;4997826;28;20184;-91
2022/11/13 09:38:39;;;;;;;34.93;15.30;;;6.10;99.90;;;;;;4997615;28;20183;-92
2022/11/13 09:41:10;;;;;;;28.47;14.60;;;6.10;99.90;;;;;;4998013;28;20175;-91
2022/11/13 09:43:48;;;;;;;32.77;15.47;;;6.10;99.90;;;;;;4998139;28;20521;-93
2022/11/13 09:46:23;;;;;;;31.60;16.13;;;6.20;99.90;;;;;;4997910;28;20167;-94
2022/11/13 09:49:02;;;;;;;31.17;15.30;;;6.30;99.90;;;;;;5014164;28;20218;-92
2022/11/13 09:51:30;;;;;;;32.20;16.33;;;6.30;99.90;;;;;;4997866;28;20172;-94
2022/11/13 09:53:57;;;;;;;29.57;15.00;;;6.40;99.90;;;;;;4997434;28;20278;-91
2022/11/13 09:56:31;;;;;;;37.03;16.83;;;6.40;99.90;;;;;;5014050;28;20184;-90
2022/11/13 09:59:19;;;;;;;36.97;17.63;;;6.50;99.90;;;;;;5014005;28;20175;-93
2022/11/13 10:02:31;;;;;;;32.33;16.07;;;6.60;99.90;;;;;;4996967;28;20180;-89
2022/11/13 10:05:20;;;;;;;31.50;15.90;;;6.60;99.90;;;;;;4997353;28;20275;-92
2022/11/13 10:08:17;;;;;;;37.00;17.27;;;6.60;99.90;;;;;;4997111;28;20266;-93
2022/11/13 10:11:19;;;;;;;35.97;16.07;;;6.70;99.90;;;;;;4997494;28;20214;-92
2022/11/13 10:13:57;;;;;;;33.97;16.30;;;6.60;99.90;;;;;;4997051;28;20235;-92
2022/11/13 10:16:42;;;;;;;33.63;18.03;;;6.70;99.90;;;;;;5013323;28;20287;-88
2022/11/13 10:19:15;;;;;;;31.80;15.40;;;6.70;99.90;;;;;;5013621;28;20176;-92
2022/11/13 10:22:04;;;;;;;32.67;16.97;;;6.70;99.90;;;;;;5013641;28;20496;-91
2022/11/13 10:24:42;;;;;;;38.17;17.43;;;6.70;99.90;;;;;;5010695;28;20249;-91
2022/11/13 10:27:13;;;;;;;29.50;15.07;;;6.60;99.90;;;;;;5033073;28;20244;-91
2022/11/13 10:29:41;;;;;;;34.93;17.07;;;6.70;99.90;;;;;;5033358;28;20183;-92
2022/11/13 10:32:20;;;;;;;35.07;16.43;;;6.70;99.90;;;;;;5033164;28;20198;-92
2022/11/13 10:35:12;;;;;;;31.23;15.53;;;6.70;99.90;;;;;;5031775;28;20237;-91
2022/11/13 10:38:03;;;;;;;32.73;15.43;;;6.70;99.90;;;;;;4995430;28;20207;-92
2022/11/13 10:40:36;;;;;;;29.83;14.83;;;6.60;99.90;;;;;;4993486;28;20191;-91
2022/11/13 10:43:05;;;;;;;26.30;14.50;;;6.70;99.90;;;;;;5001931;28;20176;-90
2022/11/13 10:45:31;;;;;;;34.90;16.77;;;6.70;99.90;;;;;;4996846;28;20554;-90
2022/11/13 10:47:57;;;;;;;31.70;16.13;;;6.70;99.90;;;;;;4996741;28;20212;-90
2022/11/13 10:50:26;;;;;;;29.73;16.93;;;6.70;99.90;;;;;;4996608;28;20187;-91
2022/11/13 10:52:54;;;;;;;29.07;15.10;;;6.80;99.90;;;;;;4996588;28;20172;-90
2022/11/13 10:55:40;;;;;;;31.37;15.50;;;6.80;99.90;;;;;;4996281;28;20176;-90
2022/11/13 10:58:15;;;;;;;34.47;17.17;;;6.80;99.90;;;;;;4996034;28;20184;-89
2022/11/13 11:00:48;;;;;;;31.63;15.90;;;6.80;99.90;;;;;;4996752;28;20179;-90
2022/11/13 11:03:16;;;;;;;34.40;17.60;;;6.90;99.90;;;;;;4996384;28;20176;-92
2022/11/13 11:06:00;;;;;;;34.83;17.20;;;6.80;99.90;;;;;;4996265;28;20191;-87
2022/11/13 11:08:34;;;;;;;37.00;17.73;;;6.80;99.90;;;;;;5012009;28;20222;-88
2022/11/13 11:13:51;;;;;;;33.93;17.33;;;6.90;99.90;;;;;;4996386;28;20176;-91
2022/11/13 11:16:23;;;;;;;34.47;18.23;;;6.90;99.90;;;;;;4995966;28;20184;-90
2022/11/13 11:19:07;;;;;;;31.83;16.43;;;6.90;99.90;;;;;;4996256;28;20168;-90
2022/11/13 11:21:36;;;;;;;34.53;17.07;;;6.90;99.90;;;;;;4996076;28;20204;-87
2022/11/13 11:24:20;;;;;;;31.83;16.80;;;7.00;99.90;;;;;;4995618;28;20242;-93
2022/11/13 11:26:58;;;;;;;33.53;17.60;;;6.90;99.90;;;;;;4995688;28;20247;-87
2022/11/13 11:29:31;;;;;;;31.13;15.97;;;6.90;99.90;;;;;;4995690;28;20206;-88
2022/11/13 11:32:10;;;;;;;33.13;16.63;;;6.90;99.90;;;;;;4995537;28;20176;-87
2022/11/13 11:34:52;;;;;;;30.97;15.90;;;6.90;99.90;;;;;;4995574;28;20225;-87
2022/11/13 11:51:19;;;;;;;30.90;15.90;;;6.90;99.90;;;;;;3653271;28;20267;-88
2022/11/13 11:54:24;;;;;;;39.67;18.53;;;6.90;99.90;;;;;;4991676;28;20189;-89
2022/11/13 11:57:13;;;;;;;33.77;17.37;;;6.90;99.90;;;;;;4975303;28;20255;-89
2022/11/13 11:59:50;;;;;;;32.13;17.17;;;6.90;99.90;;;;;;4991788;28;20180;-91
2022/11/13 12:02:34;;;;;;;34.80;16.97;;;6.90;99.90;;;;;;4991506;28;20490;-90
2022/11/13 12:05:53;;;;;;;33.80;16.93;;;6.80;99.90;;;;;;4976583;28;20196;-87
2022/11/13 12:08:34;;;;;;;33.87;15.03;;;6.80;99.90;;;;;;4938679;29;20661;-88
2022/11/13 12:11:15;;;;;;;33.67;17.70;;;6.80;99.90;;;;;;4991012;28;20172;-90
2022/11/13 12:13:47;;;;;;;32.20;17.23;;;6.80;99.90;;;;;;4991110;28;20180;-91
2022/11/13 12:16:26;;;;;;;32.77;17.63;;;6.80;99.90;;;;;;4991389;28;20177;-88
2022/11/13 12:19:17;;;;;;;35.07;18.37;;;6.70;99.90;;;;;;4991632;28;20180;-85
2022/11/13 12:21:48;;;;;;;42.80;19.60;;;6.70;99.90;;;;;;4991389;28;20172;-87
2022/11/13 12:24:59;;;;;;;37.67;19.97;;;6.70;99.90;;;;;;4990990;28;20192;-88
2022/11/13 12:27:31;;;;;;;38.07;18.00;;;6.70;99.90;;;;;;4970361;28;20219;-86
2022/11/13 12:30:03;;;;;;;33.50;17.77;;;6.70;99.90;;;;;;4991306;28;20180;-88
2022/11/13 12:32:41;;;;;;;37.33;18.17;;;6.80;99.90;;;;;;4991129;28;20179;-89
2022/11/13 12:35:14;;;;;;;43.10;20.43;;;6.80;99.90;;;;;;4991174;28;20588;-86
2022/11/13 12:38:05;;;;;;;38.07;20.07;;;6.70;99.90;;;;;;4990976;28;20239;-90
2022/11/13 12:40:44;;;;;;;39.07;18.83;;;6.70;99.90;;;;;;4991114;28;20207;-88
2022/11/13 12:43:35;;;;;;;40.87;19.80;;;6.80;99.90;;;;;;4990932;28;20259;-92
2022/11/13 12:46:09;;;;;;;42.17;19.00;;;6.80;99.90;;;;;;4956169;28;20184;-87
2022/11/13 12:48:46;;;;;;;39.40;18.93;;;6.80;99.90;;;;;;4991313;28;20219;-91
2022/11/13 12:51:14;;;;;;;38.10;18.80;;;6.80;99.90;;;;;;4991076;28;20239;-89
2022/11/13 12:53:52;;;;;;;47.30;21.33;;;6.80;99.90;;;;;;4986108;28;20197;-90
2022/11/13 12:56:26;;;;;;;47.77;22.40;;;6.80;99.90;;;;;;4955259;29;20564;-87
2022/11/13 12:59:17;;;;;;;44.27;22.70;;;6.80;99.90;;;;;;4955735;28;20188;-88
2022/11/13 13:02:06;;;;;;;45.70;20.93;;;6.90;99.90;;;;;;4955665;28;20692;-91
2022/11/13 13:04:43;;;;;;;46.50;21.27;;;6.80;99.90;;;;;;4928679;29;20189;-87
2022/11/13 13:07:47;;;;;;;44.47;21.57;;;6.90;99.90;;;;;;4955230;28;20276;-91
2022/11/13 13:10:32;;;;;;;41.20;21.70;;;6.90;99.90;;;;;;4955498;28;20324;-91
2022/11/13 13:13:12;;;;;;;43.53;19.90;;;6.90;99.90;;;;;;4955450;28;20184;-91
2022/11/13 13:15:42;;;;;;;43.53;19.90;;;6.90;99.90;;;;;;4956523;28;20173;-90
2022/11/13 13:18:17;;;;;;;38.97;20.47;;;6.90;99.90;;;;;;4956838;28;20212;-87